createdAt,value
2023-01-19T00:01:12.917Z,92.59
2023-01-19T00:02:53.358Z,92.39
2023-01-19T00:04:33.659Z,92.63
2023-01-19T00:06:14.115Z,92.71
2023-01-19T00:07:54.456Z,92.42
2023-01-19T00:09:34.880Z,92.6
2023-01-19T00:11:15.279Z,92.6
2023-01-19T00:12:55.648Z,92.58
2023-01-19T00:14:36.105Z,92.77
2023-01-19T00:16:16.488Z,93
2023-01-19T00:17:56.728Z,92.92
2023-01-19T00:19:37.074Z,92.85
2023-01-19T00:21:17.284Z,93.24
2023-01-19T00:22:58.109Z,92.99
2023-01-19T00:24:37.935Z,92.95
2023-01-19T00:26:18.182Z,92.92
2023-01-19T00:28:00.647Z,92.9
2023-01-19T00:29:38.846Z,93.21
2023-01-19T00:31:19.113Z,93.21
2023-01-19T00:32:59.895Z,93.25
2023-01-19T00:34:39.799Z,93.05
2023-01-19T00:36:19.987Z,92.81
2023-01-19T00:38:00.284Z,93
2023-01-19T00:39:40.690Z,92.99
2023-01-19T00:41:20.903Z,93.04
2023-01-19T00:43:01.734Z,93.01
2023-01-19T00:44:41.489Z,92.89
2023-01-19T00:46:21.708Z,93
2023-01-19T00:48:02.124Z,92.96
2023-01-19T00:49:42.525Z,92.87
2023-01-19T00:51:22.650Z,92.99
2023-01-19T00:53:03.315Z,93.02
2023-01-19T00:54:43.280Z,92.89
2023-01-19T00:56:23.600Z,93.04
2023-01-19T00:58:03.882Z,92.79
2023-01-19T00:59:44.259Z,92.57
2023-01-19T01:01:44.970Z,92.62
2023-01-19T01:03:05.350Z,92.5
2023-01-19T01:04:45.122Z,92.46
2023-01-19T01:06:25.480Z,92.58
2023-01-19T01:08:05.890Z,92.45
2023-01-19T01:09:46.196Z,92.33
2023-01-19T01:11:26.597Z,92.21
2023-01-19T01:13:21.600Z,92.12
2023-01-19T01:14:47.372Z,92.11
2023-01-19T01:16:27.761Z,92.13
2023-01-19T01:18:08.105Z,92.11
2023-01-19T01:19:48.631Z,91.87
2023-01-19T01:21:29.065Z,92.08
2023-01-19T01:23:09.499Z,91.88
2023-01-19T01:24:49.771Z,91.83
2023-01-19T01:26:30.039Z,91.87
2023-01-19T01:28:10.302Z,91.75
2023-01-19T01:29:50.667Z,91.84
2023-01-19T01:31:30.912Z,91.78
2023-01-19T01:33:11.187Z,91.81
2023-01-19T01:34:51.488Z,91.94
2023-01-19T01:36:31.820Z,91.96
2023-01-19T01:38:12.060Z,91.92
2023-01-19T01:39:52.360Z,92.1
2023-01-19T01:41:32.668Z,91.91
2023-01-19T01:43:12.904Z,91.99
2023-01-19T01:44:53.192Z,92.15
2023-01-19T01:46:33.504Z,92.29
2023-01-19T01:48:13.810Z,92.36
2023-01-19T01:49:54.116Z,92.54
2023-01-19T01:51:34.370Z,92.6
2023-01-19T01:53:14.736Z,92.64
2023-01-19T01:54:55.002Z,92.65
2023-01-19T01:56:35.277Z,92.73
2023-01-19T01:58:15.581Z,92.8
2023-01-19T01:59:55.937Z,93.01
2023-01-19T02:01:36.268Z,92.93
2023-01-19T02:03:16.487Z,92.93
2023-01-19T02:04:56.749Z,92.72
2023-01-19T02:06:37.031Z,92.79
2023-01-19T02:08:17.311Z,92.71
2023-01-19T02:09:57.660Z,92.39
2023-01-19T02:11:37.910Z,92.32
2023-01-19T02:13:18.161Z,92.19
2023-01-19T02:14:58.522Z,92.29
2023-01-19T02:16:38.925Z,92.24
2023-01-19T02:18:19.163Z,92.33
2023-01-19T02:19:59.514Z,92.25
2023-01-19T02:21:39.742Z,92.02
2023-01-19T02:23:20.061Z,91.83
2023-01-19T02:25:00.481Z,91.6
2023-01-19T02:26:40.595Z,91.71
2023-01-19T02:28:20.895Z,91.76
2023-01-19T02:30:01.224Z,91.56
2023-01-19T02:31:41.557Z,91.79
2023-01-19T02:33:21.887Z,91.85
2023-01-19T02:35:02.295Z,91.58
2023-01-19T02:36:42.700Z,91.54
2023-01-19T02:38:23.055Z,91.53
2023-01-19T02:40:03.466Z,91.62
2023-01-19T02:41:43.862Z,91.78
2023-01-19T02:43:24.245Z,91.88
2023-01-19T02:45:04.626Z,91.99
2023-01-19T02:46:44.966Z,92.03
2023-01-19T02:48:25.258Z,91.86
2023-01-19T02:50:05.570Z,92.01
2023-01-19T02:51:45.901Z,91.91
2023-01-19T02:53:26.274Z,91.64
2023-01-19T02:55:06.624Z,91.79
2023-01-19T02:56:46.965Z,91.71
2023-01-19T02:58:27.381Z,91.87
2023-01-19T03:00:07.812Z,91.8
2023-01-19T03:01:48.242Z,91.65
2023-01-19T03:03:28.455Z,91.66
2023-01-19T03:05:08.787Z,91.77
2023-01-19T03:06:49.083Z,91.87
2023-01-19T03:08:29.382Z,91.92
2023-01-19T03:10:09.732Z,91.95
2023-01-19T03:11:50.020Z,91.87
2023-01-19T03:13:30.329Z,91.87
2023-01-19T03:15:10.635Z,91.69
2023-01-19T03:16:51.028Z,91.81
2023-01-19T03:18:31.271Z,91.92
2023-01-19T03:20:11.617Z,92.31
2023-01-19T03:21:51.945Z,92.62
2023-01-19T03:23:32.269Z,93.01
2023-01-19T03:25:12.547Z,93.01
2023-01-19T03:26:52.906Z,92.95
2023-01-19T03:28:33.203Z,92.78
2023-01-19T03:30:13.573Z,92.77
2023-01-19T03:31:53.879Z,92.74
2023-01-19T03:33:34.193Z,92.57
2023-01-19T03:35:14.503Z,92.52
2023-01-19T03:36:54.794Z,92.39
2023-01-19T03:38:35.071Z,92.2
2023-01-19T03:40:15.406Z,92.18
2023-01-19T03:41:55.842Z,92.29
2023-01-19T03:43:36.033Z,92.27
2023-01-19T03:45:16.321Z,92.55
2023-01-19T03:46:56.631Z,92.56
2023-01-19T03:48:36.891Z,92.39
2023-01-19T03:50:17.174Z,92.35
2023-01-19T03:51:57.488Z,92.54
2023-01-19T03:53:37.747Z,92.34
2023-01-19T03:55:18.058Z,92.41
2023-01-19T03:56:58.352Z,92.48
2023-01-19T03:58:38.619Z,92.42
2023-01-19T04:00:18.898Z,92.58
2023-01-19T04:01:59.245Z,92.67
2023-01-19T04:03:39.490Z,92.74
2023-01-19T04:05:19.780Z,92.5
2023-01-19T04:07:00.109Z,92.33
2023-01-19T04:08:40.366Z,92.48
2023-01-19T04:10:20.694Z,92.45
2023-01-19T04:12:00.980Z,92.52
2023-01-19T04:13:41.238Z,92.54
2023-01-19T04:15:21.524Z,92.7
2023-01-19T04:17:01.871Z,92.86
2023-01-19T04:18:42.181Z,92.9
2023-01-19T04:20:22.482Z,92.85
2023-01-19T04:22:02.768Z,93.16
2023-01-19T04:23:43.069Z,93.24
2023-01-19T04:25:23.330Z,93.26
2023-01-19T04:27:03.642Z,93.54
2023-01-19T04:28:43.997Z,93.71
2023-01-19T04:30:24.230Z,93.95
2023-01-19T04:32:04.530Z,93.72
2023-01-19T04:33:44.790Z,93.55
2023-01-19T04:35:25.074Z,93.48
2023-01-19T04:37:05.342Z,93.32
2023-01-19T04:38:45.626Z,93.28
2023-01-19T04:40:25.947Z,93.21
2023-01-19T04:42:06.241Z,93.27
2023-01-19T04:43:46.516Z,93.06
2023-01-19T04:45:26.811Z,93.12
2023-01-19T04:47:07.189Z,93.02
2023-01-19T04:48:47.418Z,93.1
2023-01-19T04:50:27.717Z,92.9
2023-01-19T04:52:08.038Z,92.72
2023-01-19T04:53:48.331Z,92.74
2023-01-19T04:55:28.664Z,92.72
2023-01-19T04:57:08.916Z,92.65
2023-01-19T04:58:49.224Z,92.79
2023-01-19T05:00:29.497Z,92.88
2023-01-19T05:02:09.807Z,92.77
2023-01-19T05:03:50.074Z,92.74
2023-01-19T05:05:30.380Z,92.65
2023-01-19T05:07:10.689Z,92.57
2023-01-19T05:08:50.955Z,92.77
2023-01-19T05:10:31.273Z,92.68
2023-01-19T05:12:11.522Z,92.51
2023-01-19T05:13:51.791Z,92.7
2023-01-19T05:15:32.138Z,92.77
2023-01-19T05:17:12.445Z,92.96
2023-01-19T05:18:52.779Z,92.9
2023-01-19T05:20:33.063Z,92.66
2023-01-19T05:22:13.320Z,92.55
2023-01-19T05:23:53.619Z,92.42
2023-01-19T05:25:33.967Z,92.56
2023-01-19T05:27:14.204Z,92.79
2023-01-19T05:28:54.520Z,92.47
2023-01-19T05:30:34.827Z,92.71
2023-01-19T05:32:15.149Z,92.4
2023-01-19T05:33:55.409Z,91.92
2023-01-19T05:35:36.579Z,91.81
2023-01-19T05:37:15.991Z,91.76
2023-01-19T05:38:56.271Z,91.83
2023-01-19T05:40:36.542Z,91.69
2023-01-19T05:42:16.838Z,91.63
2023-01-19T05:43:57.149Z,91.5
2023-01-19T05:45:37.397Z,91.47
2023-01-19T05:47:17.678Z,91.3
2023-01-19T05:48:57.966Z,91.25
2023-01-19T05:50:38.241Z,91.12
2023-01-19T05:52:18.559Z,90.93
2023-01-19T05:53:58.875Z,90.85
2023-01-19T05:55:39.161Z,90.81
2023-01-19T05:57:19.411Z,90.84
2023-01-19T05:58:59.742Z,90.85
2023-01-19T06:00:40.080Z,90.84
2023-01-19T06:02:20.399Z,90.82
2023-01-19T06:04:00.642Z,90.88
2023-01-19T06:05:40.932Z,90.82
2023-01-19T06:07:21.991Z,90.68
2023-01-19T06:09:01.527Z,90.74
2023-01-19T06:10:41.809Z,90.8
2023-01-19T06:12:22.068Z,90.86
2023-01-19T06:14:02.391Z,90.98
2023-01-19T06:15:42.659Z,90.85
2023-01-19T06:17:22.947Z,90.87
2023-01-19T06:19:03.367Z,90.75
2023-01-19T06:20:43.643Z,90.79
2023-01-19T06:22:23.892Z,90.8
2023-01-19T06:24:04.218Z,90.76
2023-01-19T06:25:44.474Z,90.96
2023-01-19T06:27:24.776Z,91.1
2023-01-19T06:29:05.079Z,91.18
2023-01-19T06:30:45.406Z,91.22
2023-01-19T06:32:25.613Z,91.18
2023-01-19T06:34:05.903Z,91.29
2023-01-19T06:35:46.193Z,91.35
2023-01-19T06:37:26.482Z,91.17
2023-01-19T06:39:06.752Z,90.86
2023-01-19T06:40:47.096Z,90.67
2023-01-19T06:42:27.363Z,90.51
2023-01-19T06:44:07.697Z,90.34
2023-01-19T06:45:48.030Z,90.43
2023-01-19T06:47:28.299Z,90.32
2023-01-19T06:49:08.633Z,90.07
2023-01-19T06:50:48.840Z,89.81
2023-01-19T06:52:29.151Z,89.97
2023-01-19T06:54:09.415Z,89.91
2023-01-19T06:55:49.697Z,89.59
2023-01-19T06:57:29.999Z,89.64
2023-01-19T06:59:10.303Z,89.34
2023-01-19T07:00:50.884Z,89.29
2023-01-19T07:02:31.367Z,89.26
2023-01-19T07:04:11.357Z,89.21
2023-01-19T07:05:51.678Z,89.02
2023-01-19T07:07:31.966Z,89.03
2023-01-19T07:09:12.369Z,89.12
2023-01-19T07:11:25.713Z,88.77
2023-01-19T07:12:33.146Z,88.85
2023-01-19T07:14:13.594Z,88.73
2023-01-19T07:15:53.983Z,88.65
2023-01-19T07:17:34.411Z,88.57
2023-01-19T07:19:14.756Z,88.25
2023-01-19T07:20:55.288Z,88.24
2023-01-19T07:22:35.539Z,88.12
2023-01-19T07:24:15.770Z,87.93
2023-01-19T07:25:56.083Z,87.87
2023-01-19T07:27:36.356Z,87.91
2023-01-19T07:29:16.658Z,87.77
2023-01-19T07:30:57.022Z,87.92
2023-01-19T07:32:37.249Z,88.14
2023-01-19T07:34:17.512Z,88.07
2023-01-19T07:35:57.844Z,87.94
2023-01-19T07:37:38.110Z,87.97
2023-01-19T07:39:18.474Z,87.96
2023-01-19T07:40:58.793Z,87.97
2023-01-19T07:42:39.140Z,87.97
2023-01-19T07:44:19.417Z,87.85
2023-01-19T07:45:59.866Z,87.71
2023-01-19T07:47:40.151Z,87.84
2023-01-19T07:49:20.489Z,87.76
2023-01-19T07:51:00.946Z,87.35
2023-01-19T07:52:41.328Z,87.45
2023-01-19T07:54:21.715Z,87.44
2023-01-19T07:56:02.062Z,87.41
2023-01-19T07:57:42.402Z,87.11
2023-01-19T07:59:22.754Z,87.1
2023-01-19T08:01:03.216Z,87.43
2023-01-19T08:02:43.440Z,87.53
2023-01-19T08:04:23.913Z,87.34
2023-01-19T08:06:04.260Z,87.31
2023-01-19T08:07:44.602Z,87.39
2023-01-19T08:09:24.995Z,87.5
2023-01-19T08:11:05.404Z,87.26
2023-01-19T08:12:45.886Z,87.41
2023-01-19T08:14:26.266Z,88.14
2023-01-19T08:16:06.667Z,87.99
2023-01-19T08:17:46.956Z,88.09
2023-01-19T08:19:27.197Z,88.15
2023-01-19T08:21:07.572Z,88.54
2023-01-19T08:22:47.971Z,88.65
2023-01-19T08:24:28.344Z,88.98
2023-01-19T08:26:08.728Z,89.25
2023-01-19T08:27:49.224Z,89.79
2023-01-19T08:29:29.514Z,90.02
2023-01-19T08:31:19.712Z,90.58
2023-01-19T08:32:50.453Z,91.15
2023-01-19T08:34:30.720Z,91.87
2023-01-19T08:36:11.052Z,92.56
2023-01-19T08:37:51.291Z,93.02
2023-01-19T08:39:31.698Z,93.56
2023-01-19T08:41:12.008Z,94.02
2023-01-19T08:42:52.267Z,94.44
2023-01-19T08:44:32.577Z,94.67
2023-01-19T08:46:12.976Z,94.91
2023-01-19T08:47:53.172Z,95.14
2023-01-19T08:49:33.482Z,95.28
2023-01-19T08:51:13.755Z,95.4
2023-01-19T08:52:54.050Z,95.5
2023-01-19T08:54:34.344Z,95.56
2023-01-19T08:56:14.712Z,95.6
2023-01-19T08:57:54.939Z,95.48
2023-01-19T08:59:35.209Z,95.46
2023-01-19T09:01:15.607Z,95.48
2023-01-19T09:02:55.886Z,95.44
2023-01-19T09:04:36.121Z,95.53
2023-01-19T09:06:16.387Z,95.59
2023-01-19T09:07:56.712Z,95.62
2023-01-19T09:09:37.031Z,95.69
2023-01-19T09:11:17.319Z,95.76
2023-01-19T09:12:57.653Z,95.82
2023-01-19T09:14:37.950Z,95.83
2023-01-19T09:16:18.413Z,95.9
2023-01-19T09:17:58.969Z,95.92
2023-01-19T09:19:38.774Z,95.91
2023-01-19T09:21:19.090Z,95.82
2023-01-19T09:22:59.375Z,95.85
2023-01-19T09:24:39.692Z,95.87
2023-01-19T09:26:20.110Z,95.96
2023-01-19T09:28:00.922Z,95.98
2023-01-19T09:29:40.885Z,95.88
2023-01-19T09:31:21.286Z,95.81
2023-01-19T09:33:01.465Z,95.75
2023-01-19T09:34:41.772Z,95.71
2023-01-19T09:36:22.033Z,95.68
2023-01-19T09:38:02.679Z,95.59
2023-01-19T09:39:42.702Z,95.54
2023-01-19T09:41:22.873Z,95.55
2023-01-19T09:43:03.155Z,95.56
2023-01-19T09:44:43.481Z,95.59
2023-01-19T09:46:23.832Z,95.62
2023-01-19T09:48:04.073Z,95.66
2023-01-19T09:49:44.345Z,95.62
2023-01-19T09:51:24.690Z,95.51
2023-01-19T09:53:04.979Z,95.41
2023-01-19T09:54:45.311Z,95.39
2023-01-19T09:56:25.599Z,95.39
2023-01-19T09:58:05.820Z,95.41
2023-01-19T09:59:46.131Z,95.44
2023-01-19T10:01:26.603Z,95.51
2023-01-19T10:03:06.758Z,95.58
2023-01-19T10:04:47.107Z,95.65
2023-01-19T10:06:27.425Z,95.66
2023-01-19T10:08:07.800Z,95.7
2023-01-19T10:09:48.066Z,95.77
2023-01-19T10:11:34.542Z,95.81
2023-01-19T10:13:08.720Z,95.87
2023-01-19T10:14:49.000Z,95.76
2023-01-19T10:16:29.284Z,95.58
2023-01-19T10:18:09.663Z,95.42
2023-01-19T10:19:49.928Z,95.25
2023-01-19T10:21:30.287Z,95.12
2023-01-19T10:23:10.576Z,94.92
2023-01-19T10:24:50.873Z,94.88
2023-01-19T10:26:31.195Z,94.85
2023-01-19T10:28:11.461Z,95
2023-01-19T10:29:51.783Z,94.88
2023-01-19T10:31:32.318Z,94.98
2023-01-19T10:33:12.459Z,94.96
2023-01-19T10:34:52.769Z,94.98
2023-01-19T10:36:34.062Z,94.97
2023-01-19T10:38:13.399Z,95.02
2023-01-19T10:39:53.698Z,95.08
2023-01-19T10:41:33.966Z,95.02
2023-01-19T10:43:14.257Z,95.01
2023-01-19T10:44:54.607Z,95.07
2023-01-19T10:46:34.941Z,95.06
2023-01-19T10:48:15.298Z,94.78
2023-01-19T10:49:55.638Z,94.14
2023-01-19T10:51:35.961Z,93.86
2023-01-19T10:53:16.403Z,93.82
2023-01-19T10:54:56.772Z,94
2023-01-19T10:56:37.299Z,93.41
2023-01-19T10:58:18.985Z,93.09
2023-01-19T10:59:58.054Z,92.95
2023-01-19T11:01:38.525Z,92.82
2023-01-19T11:03:18.783Z,92.93
2023-01-19T11:04:59.063Z,93.39
2023-01-19T11:06:39.265Z,93.79
2023-01-19T11:08:19.585Z,94.11
2023-01-19T11:09:59.872Z,94.47
2023-01-19T11:11:40.196Z,94.66
2023-01-19T11:13:20.496Z,94.86
2023-01-19T11:15:00.807Z,95.01
2023-01-19T11:16:41.216Z,95.23
2023-01-19T11:18:21.418Z,95.42
2023-01-19T11:20:01.834Z,95.61
2023-01-19T11:21:42.122Z,95.68
2023-01-19T11:23:22.494Z,95.74
2023-01-19T11:25:02.850Z,95.86
2023-01-19T11:26:43.184Z,95.94
2023-01-19T11:28:23.431Z,95.96
2023-01-19T11:30:03.752Z,95.94
2023-01-19T11:31:44.162Z,95.98
2023-01-19T11:33:24.482Z,95.98
2023-01-19T11:35:04.744Z,96.23
2023-01-19T11:36:45.129Z,96.23
2023-01-19T11:38:25.381Z,96.19
2023-01-19T11:40:05.691Z,96.2
2023-01-19T11:41:46.026Z,96.33
2023-01-19T11:43:27.678Z,96.33
2023-01-19T11:45:06.876Z,96.34
2023-01-19T11:46:49.935Z,96.41
2023-01-19T11:48:27.699Z,96.34
2023-01-19T11:50:08.071Z,96.35
2023-01-19T11:51:48.469Z,96.37
2023-01-19T11:53:28.841Z,96.53
2023-01-19T11:55:09.254Z,96.55
2023-01-19T11:56:49.626Z,96.46
2023-01-19T11:58:29.995Z,96.48
2023-01-19T12:00:10.361Z,96.45
2023-01-19T12:01:50.763Z,96.46
2023-01-19T12:03:31.082Z,96.54
2023-01-19T12:05:11.366Z,96.51
2023-01-19T12:06:51.754Z,96.51
2023-01-19T12:08:31.994Z,96.41
2023-01-19T12:10:12.524Z,96.38
2023-01-19T12:11:52.813Z,96.33
2023-01-19T12:13:33.246Z,96.35
2023-01-19T12:15:13.721Z,96.27
2023-01-19T12:16:54.126Z,96.36
2023-01-19T12:18:34.471Z,96.45
2023-01-19T12:20:14.933Z,96.58
2023-01-19T12:21:55.113Z,96.73
2023-01-19T12:23:35.409Z,96.83
2023-01-19T12:25:15.656Z,96.88
2023-01-19T12:26:55.960Z,97
2023-01-19T12:28:36.205Z,97.01
2023-01-19T12:30:16.477Z,97.05
2023-01-19T12:31:56.943Z,97.1
2023-01-19T12:33:37.055Z,97.22
2023-01-19T12:35:17.336Z,97.22
2023-01-19T12:36:57.634Z,97.24
2023-01-19T12:38:37.901Z,97.33
2023-01-19T12:40:18.164Z,97.4
2023-01-19T12:41:58.454Z,97.4
2023-01-19T12:43:38.761Z,97.37
2023-01-19T12:45:19.138Z,97.34
2023-01-19T12:46:59.532Z,97.42
2023-01-19T12:48:39.919Z,97.37
2023-01-19T12:50:20.310Z,97.31
2023-01-19T12:52:00.699Z,97.22
2023-01-19T12:53:41.032Z,97.22
2023-01-19T12:55:21.328Z,97.19
2023-01-19T12:57:01.796Z,97.22
2023-01-19T12:58:42.191Z,97.18
2023-01-19T13:00:22.596Z,97.19
2023-01-19T13:02:03.032Z,97.17
2023-01-19T13:03:43.382Z,97.16
2023-01-19T13:05:23.809Z,97.12
2023-01-19T13:07:04.222Z,97.15
2023-01-19T13:08:44.559Z,97.15
2023-01-19T13:10:24.949Z,97.24
2023-01-19T13:12:05.405Z,97.25
2023-01-19T13:13:45.715Z,97.33
2023-01-19T13:15:26.110Z,97.47
2023-01-19T13:17:06.504Z,97.52
2023-01-19T13:18:46.836Z,97.47
2023-01-19T13:20:27.119Z,97.38
2023-01-19T13:22:07.460Z,97.33
2023-01-19T13:23:47.865Z,97.37
2023-01-19T13:25:33.946Z,97.45
2023-01-19T13:27:14.270Z,97.48
2023-01-19T13:28:54.603Z,97.42
2023-01-19T13:30:34.994Z,97.45
2023-01-19T13:32:15.343Z,97.49
2023-01-19T13:33:55.688Z,97.49
2023-01-19T13:35:36.030Z,97.45
2023-01-19T13:37:16.339Z,97.37
2023-01-19T13:38:56.611Z,97.33
2023-01-19T13:40:36.929Z,97.29
2023-01-19T13:42:17.277Z,97.28
2023-01-19T13:43:57.584Z,97.25
2023-01-19T13:45:37.962Z,97.28
2023-01-19T13:47:18.195Z,97.14
2023-01-19T13:48:58.498Z,97.01
2023-01-19T13:50:38.808Z,96.94
2023-01-19T13:52:19.151Z,96.9
2023-01-19T13:53:59.419Z,96.8
2023-01-19T13:55:39.751Z,96.76
2023-01-19T13:57:20.131Z,96.75
2023-01-19T13:59:00.394Z,96.75
2023-01-19T14:00:40.778Z,96.73
2023-01-19T14:02:21.284Z,96.71
2023-01-19T14:04:01.380Z,96.58
2023-01-19T14:05:41.726Z,96.62
2023-01-19T14:07:21.954Z,96.42
2023-01-19T14:09:02.334Z,96.26
2023-01-19T14:10:42.608Z,96.14
2023-01-19T14:12:22.956Z,95.89
2023-01-19T14:14:03.244Z,95.64
2023-01-19T14:15:43.643Z,95.47
2023-01-19T14:17:23.920Z,95.47
2023-01-19T14:19:09.299Z,95.38
2023-01-19T14:20:49.705Z,95.44
2023-01-19T14:22:30.089Z,95.36
2023-01-19T14:24:10.458Z,95.37
2023-01-19T14:25:50.846Z,95.39
2023-01-19T14:27:31.220Z,95.39
2023-01-19T14:29:11.596Z,95.38
2023-01-19T14:30:51.965Z,95.43
2023-01-19T14:32:32.129Z,95.45
2023-01-19T14:34:12.473Z,95.32
2023-01-19T14:35:52.754Z,95.12
2023-01-19T14:37:33.155Z,94.94
2023-01-19T14:39:13.543Z,94.86
2023-01-19T14:40:53.940Z,94.79
2023-01-19T14:42:34.241Z,94.63
2023-01-19T14:44:14.616Z,94.34
2023-01-19T14:45:55.043Z,94.2
2023-01-19T14:47:35.412Z,94.11
2023-01-19T14:49:15.822Z,94.15
2023-01-19T14:51:03.309Z,94.19
2023-01-19T14:52:36.719Z,94.01
2023-01-19T14:54:16.990Z,93.96
2023-01-19T14:55:57.367Z,93.95
2023-01-19T14:57:37.698Z,93.95
2023-01-19T14:59:18.071Z,93.94
2023-01-19T15:00:58.634Z,93.94
2023-01-19T15:02:38.871Z,93.8
2023-01-19T15:04:19.228Z,93.6
2023-01-19T15:05:59.673Z,93.57
2023-01-19T15:07:40.079Z,93.51
2023-01-19T15:09:20.416Z,93.5
2023-01-19T15:11:00.771Z,93.33
2023-01-19T15:12:41.201Z,93.35
2023-01-19T15:14:21.562Z,93.32
2023-01-19T15:16:01.927Z,93.42
2023-01-19T15:17:42.423Z,93.49
2023-01-19T15:19:22.737Z,93.4
2023-01-19T15:21:03.206Z,93.39
2023-01-19T15:22:43.567Z,93.31
2023-01-19T15:24:24.045Z,93.33
2023-01-19T15:26:04.438Z,93.31
2023-01-19T15:27:44.850Z,93.3
2023-01-19T15:29:25.195Z,93.33
2023-01-19T15:31:05.614Z,93.33
2023-01-19T15:32:45.976Z,93.39
2023-01-19T15:34:27.325Z,93.6
2023-01-19T15:36:06.783Z,93.64
2023-01-19T15:37:47.278Z,93.62
2023-01-19T15:39:27.632Z,93.68
2023-01-19T15:41:07.939Z,93.74
2023-01-19T15:42:48.371Z,93.66
2023-01-19T15:44:28.574Z,93.54
2023-01-19T15:46:08.976Z,93.5
2023-01-19T15:47:49.382Z,93.28
2023-01-19T15:49:29.748Z,93.37
2023-01-19T15:51:10.127Z,93.44
2023-01-19T15:52:50.496Z,93.46
2023-01-19T15:54:30.832Z,93.63
2023-01-19T15:56:11.232Z,93.62
2023-01-19T15:57:51.894Z,93.72
2023-01-19T15:59:32.053Z,93.72
2023-01-19T16:01:12.554Z,93.79
2023-01-19T16:02:52.943Z,93.93
2023-01-19T16:04:33.242Z,94.14
2023-01-19T16:06:13.564Z,94.3
2023-01-19T16:07:53.877Z,94.39
2023-01-19T16:09:34.304Z,94.42
2023-01-19T16:11:14.779Z,94.69
2023-01-19T16:12:55.113Z,95.05
2023-01-19T16:14:36.124Z,95.25
2023-01-19T16:16:15.932Z,95.45
2023-01-19T16:17:56.164Z,95.75
2023-01-19T16:19:41.279Z,95.82
2023-01-19T16:21:21.588Z,95.9
2023-01-19T16:23:17.224Z,96.07
2023-01-19T16:24:42.274Z,96.36
2023-01-19T16:26:22.587Z,96.53
2023-01-19T16:28:02.917Z,96.62
2023-01-19T16:29:43.175Z,96.63
2023-01-19T16:31:23.539Z,96.62
2023-01-19T16:33:03.820Z,96.66
2023-01-19T16:34:44.205Z,96.77
2023-01-19T16:36:24.495Z,96.8
2023-01-19T16:38:04.862Z,96.78
2023-01-19T16:39:45.068Z,96.83
2023-01-19T16:41:25.304Z,96.91
2023-01-19T16:43:05.638Z,97.01
2023-01-19T16:44:45.939Z,97.17
2023-01-19T16:46:26.442Z,97.24
2023-01-19T16:48:06.674Z,97.15
2023-01-19T16:49:47.032Z,97.05
2023-01-19T16:51:27.312Z,97.04
2023-01-19T16:53:07.706Z,97.05
2023-01-19T16:54:48.130Z,97.12
2023-01-19T16:56:28.499Z,97.2
2023-01-19T16:58:08.943Z,97.03
2023-01-19T16:59:49.255Z,96.88
2023-01-19T17:01:29.777Z,96.8
2023-01-19T17:03:09.913Z,96.9
2023-01-19T17:04:50.192Z,96.89
2023-01-19T17:06:30.449Z,96.82
2023-01-19T17:08:10.740Z,96.74
2023-01-19T17:09:51.050Z,96.6
2023-01-19T17:11:31.334Z,96.6
2023-01-19T17:13:11.737Z,96.48
2023-01-19T17:14:51.998Z,96.29
2023-01-19T17:16:32.422Z,96.24
2023-01-19T17:18:12.785Z,96.26
2023-01-19T17:19:53.197Z,96.3
2023-01-19T17:21:33.598Z,96.33
2023-01-19T17:23:13.964Z,96.41
2023-01-19T17:24:54.391Z,96.53
2023-01-19T17:26:34.777Z,96.61
2023-01-19T17:28:15.153Z,96.73
2023-01-19T17:29:55.419Z,96.84
2023-01-19T17:31:35.832Z,96.9
2023-01-19T17:33:16.205Z,96.91
2023-01-19T17:34:56.598Z,96.99
2023-01-19T17:36:37.067Z,97.04
2023-01-19T17:38:17.360Z,97.11
2023-01-19T17:39:57.643Z,97.21
2023-01-19T17:41:37.879Z,97.3
2023-01-19T17:43:18.143Z,97.46
2023-01-19T17:44:58.489Z,97.62
2023-01-19T17:46:38.746Z,97.71
2023-01-19T17:48:18.981Z,97.7
2023-01-19T17:49:59.290Z,97.69
2023-01-19T17:51:39.552Z,97.74
2023-01-19T17:53:19.865Z,97.61
2023-01-19T17:55:00.144Z,97.5
2023-01-19T17:56:40.400Z,97.33
2023-01-19T17:58:20.648Z,97.28
2023-01-19T18:00:00.935Z,97.05
2023-01-19T18:01:41.341Z,96.95
2023-01-19T18:03:21.447Z,96.86
2023-01-19T18:05:01.694Z,96.85
2023-01-19T18:06:41.951Z,96.93
2023-01-19T18:08:22.224Z,97.04
2023-01-19T18:10:02.663Z,97.05
2023-01-19T18:11:42.926Z,97.08
2023-01-19T18:13:29.367Z,97.15
2023-01-19T18:15:09.723Z,97.18
2023-01-19T18:16:50.075Z,97.2
2023-01-19T18:18:30.423Z,97.18
2023-01-19T18:20:11.135Z,97.23
2023-01-19T18:21:51.213Z,97.28
2023-01-19T18:23:31.538Z,97.24
2023-01-19T18:25:11.950Z,97.29
2023-01-19T18:26:53.712Z,97.31
2023-01-19T18:28:32.546Z,97.4
2023-01-19T18:30:13.099Z,97.44
2023-01-19T18:31:53.109Z,97.5
2023-01-19T18:33:33.366Z,97.82
2023-01-19T18:35:13.664Z,98.15
2023-01-19T18:36:54.002Z,98.39
2023-01-19T18:38:34.264Z,98.57
2023-01-19T18:40:14.979Z,98.72
2023-01-19T18:41:54.909Z,98.76
2023-01-19T18:43:35.183Z,98.79
2023-01-19T18:45:15.514Z,98.95
2023-01-19T18:46:55.770Z,99.06
2023-01-19T18:48:36.016Z,99.05
2023-01-19T18:50:16.281Z,99.06
2023-01-19T18:51:56.522Z,99.1
2023-01-19T18:53:36.874Z,99.2
2023-01-19T18:55:17.164Z,99.22
2023-01-19T18:56:57.437Z,99.32
2023-01-19T18:58:37.751Z,99.5
2023-01-19T19:00:18.130Z,99.6
2023-01-19T19:01:58.459Z,99.71
2023-01-19T19:03:38.734Z,99.81
2023-01-19T19:05:19.250Z,99.9
2023-01-19T19:06:59.582Z,99.91
2023-01-19T19:08:39.983Z,99.93
2023-01-19T19:10:20.425Z,99.98
2023-01-19T19:12:00.866Z,99.99
2023-01-19T19:13:41.354Z,100
2023-01-19T19:15:21.674Z,100
2023-01-19T19:17:01.926Z,100
2023-01-19T19:18:42.244Z,100
2023-01-19T19:20:22.551Z,100
2023-01-19T19:22:02.896Z,100
2023-01-19T19:23:43.240Z,100
2023-01-19T19:25:23.504Z,100
2023-01-19T19:27:03.797Z,100
2023-01-19T19:28:44.066Z,100
2023-01-19T19:30:24.390Z,100
2023-01-19T19:32:04.620Z,100
2023-01-19T19:33:51.674Z,100
2023-01-19T19:35:31.624Z,100
2023-01-19T19:37:12.017Z,100
2023-01-19T19:38:52.385Z,100
2023-01-19T19:40:32.775Z,100
2023-01-19T19:42:13.152Z,100
2023-01-19T19:43:53.429Z,100
2023-01-19T19:45:39.805Z,100
2023-01-19T19:47:20.162Z,100
2023-01-19T19:49:00.550Z,100
2023-01-19T19:50:40.896Z,100
2023-01-19T19:52:21.229Z,100
2023-01-19T19:54:01.644Z,100
2023-01-19T19:55:42.040Z,100
2023-01-19T19:57:22.453Z,100
2023-01-19T19:59:02.832Z,100
2023-01-19T20:00:43.267Z,100
2023-01-19T20:02:23.666Z,100
2023-01-19T20:04:04.067Z,100
2023-01-19T20:05:44.458Z,100
2023-01-19T20:07:24.718Z,100
2023-01-19T20:09:04.956Z,100
2023-01-19T20:10:45.258Z,100
2023-01-19T20:12:25.640Z,100
2023-01-19T20:14:05.865Z,100
2023-01-19T20:15:46.205Z,100
2023-01-19T20:17:26.440Z,100
2023-01-19T20:19:06.695Z,100
2023-01-19T20:20:47.069Z,100
2023-01-19T20:22:27.445Z,100
2023-01-19T20:24:07.794Z,100
2023-01-19T20:25:48.187Z,100
2023-01-19T20:27:28.580Z,100
2023-01-19T20:29:08.910Z,100
2023-01-19T20:30:49.323Z,100
2023-01-19T20:32:29.722Z,100
2023-01-19T20:34:10.047Z,100
2023-01-19T20:35:50.268Z,100
2023-01-19T20:37:30.513Z,100
2023-01-19T20:39:10.838Z,100
2023-01-19T20:40:51.120Z,100
2023-01-19T20:42:31.403Z,100
2023-01-19T20:44:11.665Z,100
2023-01-19T20:45:52.026Z,100
2023-01-19T20:47:32.197Z,100
2023-01-19T20:49:12.520Z,100
2023-01-19T20:50:52.856Z,100
2023-01-19T20:52:33.162Z,100
2023-01-19T20:54:13.500Z,100
2023-01-19T20:55:53.867Z,100
2023-01-19T20:57:34.270Z,100
2023-01-19T20:59:14.658Z,100
2023-01-19T21:00:55.150Z,100
2023-01-19T21:02:35.557Z,100
2023-01-19T21:04:15.754Z,100
2023-01-19T21:05:59.339Z,100
2023-01-19T21:07:36.620Z,100
2023-01-19T21:09:17.008Z,100
2023-01-19T21:10:57.335Z,100
2023-01-19T21:12:37.718Z,100
2023-01-19T21:14:18.003Z,100
2023-01-19T21:15:58.296Z,100
2023-01-19T21:17:38.598Z,100
2023-01-19T21:19:18.946Z,100
2023-01-19T21:20:59.305Z,100
2023-01-19T21:22:39.535Z,100
2023-01-19T21:24:19.884Z,100
2023-01-19T21:26:00.157Z,100
2023-01-19T21:27:40.397Z,100
2023-01-19T21:29:20.755Z,100
2023-01-19T21:31:01.035Z,99.99
2023-01-19T21:32:41.309Z,100
2023-01-19T21:34:21.559Z,100
2023-01-19T21:36:01.812Z,100
2023-01-19T21:37:42.092Z,100
2023-01-19T21:39:22.502Z,100
2023-01-19T21:41:02.719Z,100
2023-01-19T21:42:43.000Z,100
2023-01-19T21:44:23.250Z,100
2023-01-19T21:46:03.545Z,100
2023-01-19T21:47:43.794Z,100